Time,TemperatureF,DewpointF,PressureIn,WindDirection,WindDirectionDegrees,WindSpeedMPH,WindSpeedGustMPH,Humidity,HourlyPrecipIn,Conditions,Clouds,dailyrainin,SoftwareType,DateUTC
2013-01-05 00:02:00,19.9,14.2,30.08,SSW,202,3.2,-999.0,78,-99.99,,,0.00,Acu-Link.com,2013-01-05 06:02:00,
2013-01-05 00:17:00,19.4,13.7,30.06,SW,225,2.7,-999.0,78,-99.99,,,0.00,Acu-Link.com,2013-01-05 06:17:00,
2013-01-05 00:33:00,19.4,14.0,30.05,WSW,247,2.7,-999.0,79,-99.99,,,0.00,Acu-Link.com,2013-01-05 06:33:00,
2013-01-05 00:48:00,19.0,13.9,30.05,North,0,2.7,-999.0,80,-99.99,,,0.00,Acu-Link.com,2013-01-05 06:48:00,
2013-01-05 01:03:00,18.9,13.8,30.05,SW,225,3.7,-999.0,80,-99.99,,,0.00,Acu-Link.com,2013-01-05 07:03:00,
2013-01-05 01:18:00,18.9,13.8,30.05,SW,225,3.2,-999.0,80,-99.99,,,0.00,Acu-Link.com,2013-01-05 07:18:00,
2013-01-05 01:34:00,18.3,13.5,30.04,SW,225,3.2,-999.0,81,-99.99,,,0.00,Acu-Link.com,2013-01-05 07:34:00,
2013-01-05 01:49:00,18.1,13.5,30.03,WSW,247,4.7,-999.0,82,-99.99,,,0.00,Acu-Link.com,2013-01-05 07:49:00,
2013-01-05 02:04:00,18.1,13.5,30.04,SW,225,4.2,-999.0,82,-99.99,,,0.00,Acu-Link.com,2013-01-05 08:04:00,
2013-01-05 02:19:00,18.7,14.1,30.03,ESE,112,4.7,-999.0,82,-99.99,,,0.00,Acu-Link.com,2013-01-05 08:19:00,
2013-01-05 02:34:00,19.2,14.6,30.03,South,180,3.7,-999.0,82,-99.99,,,0.00,Acu-Link.com,2013-01-05 08:34:00,
2013-01-05 02:50:00,19.6,15.3,30.04,SSE,157,4.2,-999.0,83,-99.99,,,0.00,Acu-Link.com,2013-01-05 08:50:00,
2013-01-05 03:07:00,19.8,15.5,30.03,South,180,3.2,-999.0,83,-99.99,,,0.00,Acu-Link.com,2013-01-05 09:07:00,
2013-01-05 03:23:00,19.6,15.3,30.02,South,180,4.2,-999.0,83,-99.99,,,0.00,Acu-Link.com,2013-01-05 09:23:00,
2013-01-05 03:38:00,18.9,14.9,30.02,South,180,3.7,-999.0,84,-99.99,,,0.00,Acu-Link.com,2013-01-05 09:38:00,
2013-01-05 03:53:00,18.1,14.4,30.01,West,270,2.7,-999.0,85,-99.99,,,0.00,Acu-Link.com,2013-01-05 09:53:00,
2013-01-05 04:08:00,18.0,14.5,30.03,West,270,4.2,-999.0,86,-99.99,,,0.00,Acu-Link.com,2013-01-05 10:08:00,
2013-01-05 04:23:00,17.8,14.3,30.02,SSW,202,3.2,-999.0,86,-99.99,,,0.00,Acu-Link.com,2013-01-05 10:23:00,
2013-01-05 04:39:00,18.3,15.1,30.00,South,180,3.7,-999.0,87,-99.99,,,0.00,Acu-Link.com,2013-01-05 10:39:00,
2013-01-05 04:54:00,19.0,16.0,29.99,West,270,3.7,-999.0,88,-99.99,,,0.00,Acu-Link.com,2013-01-05 10:54:00,
2013-01-05 05:09:00,19.6,16.6,29.99,South,180,2.2,-999.0,88,-99.99,,,0.00,Acu-Link.com,2013-01-05 11:09:00,
2013-01-05 05:24:00,19.6,16.6,29.98,WSW,247,2.7,-999.0,88,-99.99,,,0.00,Acu-Link.com,2013-01-05 11:24:00,
2013-01-05 05:39:00,19.0,16.0,29.98,SW,225,2.2,-999.0,88,-99.99,,,0.00,Acu-Link.com,2013-01-05 11:39:00,
2013-01-05 05:55:00,20.3,17.8,29.97,WNW,292,6.3,-999.0,90,-99.99,,,0.00,Acu-Link.com,2013-01-05 11:55:00,
2013-01-05 06:10:00,20.5,18.0,29.98,WNW,292,1.7,-999.0,90,-99.99,,,0.00,Acu-Link.com,2013-01-05 12:10:00,
2013-01-05 06:25:00,19.9,17.2,29.99,WNW,292,3.2,-999.0,89,-99.99,,,0.00,Acu-Link.com,2013-01-05 12:25:00,
2013-01-05 06:40:00,19.6,16.6,29.98,WNW,292,3.7,-999.0,88,-99.99,,,0.00,Acu-Link.com,2013-01-05 12:40:00,
2013-01-05 06:55:00,18.9,15.9,29.98,East,90,1.1,-999.0,88,-99.99,,,0.00,Acu-Link.com,2013-01-05 12:55:00,
2013-01-05 07:11:00,19.8,17.1,29.98,West,270,2.7,-999.0,89,-99.99,,,0.00,Acu-Link.com,2013-01-05 13:11:00,
2013-01-05 07:26:00,20.8,18.1,29.97,South,180,3.7,-999.0,89,-99.99,,,0.00,Acu-Link.com,2013-01-05 13:26:00,
2013-01-05 07:41:00,21.4,18.7,29.98,SSW,202,3.7,-999.0,89,-99.99,,,0.00,Acu-Link.com,2013-01-05 13:41:00,
2013-01-05 07:56:00,21.2,18.5,30.00,SW,225,2.2,-999.0,89,-99.99,,,0.00,Acu-Link.com,2013-01-05 13:56:00,
2013-01-05 08:12:00,21.6,18.9,29.99,NW,315,0.0,-999.0,89,-99.99,,,0.00,Acu-Link.com,2013-01-05 14:12:00,
2013-01-05 08:27:00,22.3,19.6,29.99,West,270,1.1,-999.0,89,-99.99,,,0.00,Acu-Link.com,2013-01-05 14:27:00,
2013-01-05 08:42:00,23.0,19.7,30.00,South,180,1.1,-999.0,87,-99.99,,,0.00,Acu-Link.com,2013-01-05 14:42:00,
2013-01-05 08:57:00,24.1,20.3,29.98,NNW,337,5.8,-999.0,85,-99.99,,,0.00,Acu-Link.com,2013-01-05 14:57:00,
2013-01-05 09:12:00,26.2,21.5,29.99,SW,225,2.2,-999.0,82,-99.99,,,0.00,Acu-Link.com,2013-01-05 15:12:00,
2013-01-05 09:28:00,27.3,22.3,30.00,South,180,4.2,-999.0,81,-99.99,,,0.00,Acu-Link.com,2013-01-05 15:28:00,
2013-01-05 09:43:00,26.8,22.1,30.00,West,270,5.3,-999.0,82,-99.99,,,0.00,Acu-Link.com,2013-01-05 15:43:00,
2013-01-05 09:58:00,26.1,20.8,30.01,West,270,4.7,-999.0,80,-99.99,,,0.00,Acu-Link.com,2013-01-05 15:58:00,
2013-01-05 10:13:00,26.4,21.4,29.99,WSW,247,4.2,-999.0,81,-99.99,,,0.00,Acu-Link.com,2013-01-05 16:13:00,
2013-01-05 10:28:00,27.3,22.3,29.98,South,180,4.2,-999.0,81,-99.99,,,0.00,Acu-Link.com,2013-01-05 16:28:00,
2013-01-05 10:50:00,30.2,23.9,29.98,SW,225,5.8,-999.0,77,-99.99,,,0.00,Acu-Link.com,2013-01-05 16:50:00,
2013-01-05 11:05:00,32.7,25.7,29.98,SW,225,5.3,-999.0,75,-99.99,,,0.00,Acu-Link.com,2013-01-05 17:05:00,
2013-01-05 11:20:00,32.7,24.4,29.98,WSW,247,6.3,-999.0,71,-99.99,,,0.00,Acu-Link.com,2013-01-05 17:20:00,
2013-01-05 11:36:00,33.4,22.2,29.96,WSW,247,9.9,-999.0,63,-99.99,,,0.00,Acu-Link.com,2013-01-05 17:36:00,
2013-01-05 11:51:00,31.1,21.1,29.95,NW,315,11.9,-999.0,66,-99.99,,,0.00,Acu-Link.com,2013-01-05 17:51:00,
2013-01-05 12:06:00,30.9,20.5,29.94,NW,315,6.3,-999.0,65,-99.99,,,0.00,Acu-Link.com,2013-01-05 18:06:00,
2013-01-05 12:21:00,32.2,21.4,29.97,West,270,7.8,-999.0,64,-99.99,,,0.00,Acu-Link.com,2013-01-05 18:21:00,
2013-01-05 12:36:00,30.6,19.9,29.97,South,180,6.3,-999.0,64,-99.99,,,0.00,Acu-Link.com,2013-01-05 18:36:00,
2013-01-05 12:52:00,30.4,19.3,29.95,SW,225,3.7,-999.0,63,-99.99,,,0.00,Acu-Link.com,2013-01-05 18:52:00,
2013-01-05 13:07:00,32.5,20.2,29.93,NNW,337,4.7,-999.0,60,-99.99,,,0.00,Acu-Link.com,2013-01-05 19:07:00,
2013-01-05 13:22:00,31.6,19.7,29.94,West,270,4.7,-999.0,61,-99.99,,,0.00,Acu-Link.com,2013-01-05 19:22:00,
2013-01-05 13:37:00,31.6,20.1,29.93,WNW,292,3.7,-999.0,62,-99.99,,,0.00,Acu-Link.com,2013-01-05 19:37:00,
2013-01-05 13:53:00,31.8,19.9,29.94,SW,225,4.7,-999.0,61,-99.99,,,0.00,Acu-Link.com,2013-01-05 19:53:00,
2013-01-05 14:08:00,33.1,20.0,29.96,West,270,5.8,-999.0,58,-99.99,,,0.00,Acu-Link.com,2013-01-05 20:08:00,
2013-01-05 14:23:00,32.4,20.1,29.95,WNW,292,6.3,-999.0,60,-99.99,,,0.00,Acu-Link.com,2013-01-05 20:23:00,
2013-01-05 14:38:00,33.8,21.0,29.96,WSW,247,6.3,-999.0,59,-99.99,,,0.00,Acu-Link.com,2013-01-05 20:38:00,
2013-01-05 14:53:00,33.6,20.8,29.95,WSW,247,5.3,-999.0,59,-99.99,,,0.00,Acu-Link.com,2013-01-05 20:53:00,
2013-01-05 15:09:00,33.8,21.8,29.96,West,270,2.2,-999.0,61,-99.99,,,0.00,Acu-Link.com,2013-01-05 21:09:00,
2013-01-05 15:24:00,33.6,21.6,29.97,WNW,292,3.2,-999.0,61,-99.99,,,0.00,Acu-Link.com,2013-01-05 21:24:00,
2013-01-05 15:39:00,34.3,22.7,29.98,WNW,292,3.7,-999.0,62,-99.99,,,0.00,Acu-Link.com,2013-01-05 21:39:00,
2013-01-05 15:54:00,34.3,23.0,30.00,SW,225,4.2,-999.0,63,-99.99,,,0.00,Acu-Link.com,2013-01-05 21:54:00,
2013-01-05 16:09:00,34.2,23.3,29.99,WSW,247,2.7,-999.0,64,-99.99,,,0.00,Acu-Link.com,2013-01-05 22:09:00,
2013-01-05 16:25:00,34.0,23.5,30.00,North,0,2.2,-999.0,65,-99.99,,,0.00,Acu-Link.com,2013-01-05 22:25:00,
2013-01-05 16:47:00,33.3,23.5,29.99,North,0,3.2,-999.0,67,-99.99,,,0.00,Acu-Link.com,2013-01-05 22:47:00,
2013-01-05 17:11:00,34.0,24.2,30.00,West,270,1.1,-999.0,67,-99.99,,,0.00,Acu-Link.com,2013-01-05 23:11:00,
2013-01-05 17:26:00,30.9,23.3,30.00,WSW,247,2.2,-999.0,73,-99.99,,,0.00,Acu-Link.com,2013-01-05 23:26:00,
2013-01-05 17:42:00,30.0,23.1,30.01,North,0,2.7,-999.0,75,-99.99,,,0.00,Acu-Link.com,2013-01-05 23:42:00,
2013-01-05 17:58:00,28.9,22.6,30.01,WSW,247,2.7,-999.0,77,-99.99,,,0.00,Acu-Link.com,2013-01-05 23:58:00,
2013-01-05 18:14:00,28.2,22.5,30.03,SSW,202,2.2,-999.0,79,-99.99,,,0.00,Acu-Link.com,2013-01-06 00:14:00,
2013-01-05 18:31:00,28.0,22.9,30.02,WNW,292,2.2,-999.0,81,-99.99,,,0.00,Acu-Link.com,2013-01-06 00:31:00,
2013-01-05 18:46:00,28.0,22.9,30.04,WNW,292,2.2,-999.0,81,-99.99,,,0.00,Acu-Link.com,2013-01-06 00:46:00,
2013-01-05 19:01:00,27.9,22.8,30.04,West,270,2.2,-999.0,81,-99.99,,,0.00,Acu-Link.com,2013-01-06 01:01:00,
2013-01-05 19:17:00,27.5,22.7,30.04,West,270,0.0,-999.0,82,-99.99,,,0.00,Acu-Link.com,2013-01-06 01:17:00,
2013-01-05 19:32:00,26.8,22.6,30.04,NNW,337,0.0,-999.0,84,-99.99,,,0.00,Acu-Link.com,2013-01-06 01:32:00,
2013-01-05 19:47:00,28.6,24.1,30.06,SW,225,3.2,-999.0,83,-99.99,,,0.00,Acu-Link.com,2013-01-06 01:47:00,
2013-01-05 20:02:00,30.0,24.0,30.07,West,270,4.2,-999.0,78,-99.99,,,0.00,Acu-Link.com,2013-01-06 02:02:00,
2013-01-05 20:17:00,28.9,22.6,30.07,NNW,337,3.7,-999.0,77,-99.99,,,0.00,Acu-Link.com,2013-01-06 02:17:00,
2013-01-05 20:33:00,27.9,21.9,30.08,WNW,292,2.2,-999.0,78,-99.99,,,0.00,Acu-Link.com,2013-01-06 02:33:00,
2013-01-05 20:48:00,28.0,21.7,30.09,WNW,292,6.3,-999.0,77,-99.99,,,0.00,Acu-Link.com,2013-01-06 02:48:00,
2013-01-05 21:03:00,28.0,20.8,30.10,West,270,8.3,-999.0,74,-99.99,,,0.00,Acu-Link.com,2013-01-06 03:03:00,
2013-01-05 21:18:00,27.3,20.1,30.10,West,270,7.8,-999.0,74,-99.99,,,0.00,Acu-Link.com,2013-01-06 03:18:00,
2013-01-05 21:33:00,26.4,19.3,30.11,West,270,6.8,-999.0,74,-99.99,,,0.00,Acu-Link.com,2013-01-06 03:33:00,
2013-01-05 21:49:00,25.9,19.1,30.12,NNW,337,9.9,-999.0,75,-99.99,,,0.00,Acu-Link.com,2013-01-06 03:49:00,
2013-01-05 22:04:00,25.2,18.7,30.13,WSW,247,5.3,-999.0,76,-99.99,,,0.00,Acu-Link.com,2013-01-06 04:04:00,
2013-01-05 22:19:00,26.4,20.2,30.13,West,270,9.9,-999.0,77,-99.99,,,0.00,Acu-Link.com,2013-01-06 04:19:00,
2013-01-05 22:35:00,24.6,18.4,30.14,North,0,8.3,-999.0,77,-99.99,,,0.00,Acu-Link.com,2013-01-06 04:35:00,
2013-01-05 22:50:00,24.6,18.7,30.14,North,0,4.7,-999.0,78,-99.99,,,0.00,Acu-Link.com,2013-01-06 04:50:00,
2013-01-05 23:20:00,22.1,16.0,30.16,West,270,5.8,-999.0,77,-99.99,,,0.00,Acu-Link.com,2013-01-06 05:20:00,
2013-01-05 23:35:00,21.2,15.7,30.17,WNW,292,4.7,-999.0,79,-99.99,,,0.00,Acu-Link.com,2013-01-06 05:35:00,
2013-01-05 23:51:00,21.0,15.5,30.18,West,270,5.8,-999.0,79,-99.99,,,0.00,Acu-Link.com,2013-01-06 05:51:00,